sensor_id;sensor_type;location;lat;lon;timestamp;P1;durP1;ratioP1;P2;durP2;ratioP2
8183;SDS011;4133;48.752;9.088;2022-10-31T00:00:36;4.73;;;2.77;;
8183;SDS011;4133;48.752;9.088;2022-10-31T00:03:02;4.13;;;2.23;;
8183;SDS011;4133;48.752;9.088;2022-10-31T00:05:28;4.10;;;2.73;;
8183;SDS011;4133;48.752;9.088;2022-10-31T00:07:54;4.97;;;2.10;;
8183;SDS011;4133;48.752;9.088;2022-10-31T00:10:20;9.00;;;2.53;;
8183;SDS011;4133;48.752;9.088;2022-10-31T00:12:46;5.93;;;2.70;;
8183;SDS011;4133;48.752;9.088;2022-10-31T00:15:12;6.97;;;2.50;;
8183;SDS011;4133;48.752;9.088;2022-10-31T00:17:38;6.27;;;2.50;;
8183;SDS011;4133;48.752;9.088;2022-10-31T00:20:04;5.67;;;2.37;;
8183;SDS011;4133;48.752;9.088;2022-10-31T00:22:30;5.83;;;2.27;;
8183;SDS011;4133;48.752;9.088;2022-10-31T00:24:56;4.77;;;2.70;;
8183;SDS011;4133;48.752;9.088;2022-10-31T00:27:22;5.30;;;2.63;;
8183;SDS011;4133;48.752;9.088;2022-10-31T00:29:48;5.70;;;2.20;;
8183;SDS011;4133;48.752;9.088;2022-10-31T00:32:14;6.00;;;2.33;;
8183;SDS011;4133;48.752;9.088;2022-10-31T00:34:40;6.53;;;2.83;;
8183;SDS011;4133;48.752;9.088;2022-10-31T00:37:06;4.57;;;2.13;;
8183;SDS011;4133;48.752;9.088;2022-10-31T00:39:32;6.87;;;2.50;;
8183;SDS011;4133;48.752;9.088;2022-10-31T00:41:58;4.70;;;2.20;;
8183;SDS011;4133;48.752;9.088;2022-10-31T00:44:24;4.83;;;2.53;;
8183;SDS011;4133;48.752;9.088;2022-10-31T00:46:50;4.50;;;2.27;;
8183;SDS011;4133;48.752;9.088;2022-10-31T00:49:16;6.33;;;2.40;;
8183;SDS011;4133;48.752;9.088;2022-10-31T00:51:42;5.40;;;2.80;;
8183;SDS011;4133;48.752;9.088;2022-10-31T00:54:08;6.97;;;2.50;;
8183;SDS011;4133;48.752;9.088;2022-10-31T00:59:37;7.57;;;2.47;;
8183;SDS011;4133;48.752;9.088;2022-10-31T01:02:03;4.97;;;2.10;;
8183;SDS011;4133;48.752;9.088;2022-10-31T01:04:29;4.50;;;2.37;;
8183;SDS011;4133;48.752;9.088;2022-10-31T01:06:55;4.17;;;2.07;;
8183;SDS011;4133;48.752;9.088;2022-10-31T01:09:21;4.23;;;2.27;;
8183;SDS011;4133;48.752;9.088;2022-10-31T01:11:47;9.90;;;2.50;;
8183;SDS011;4133;48.752;9.088;2022-10-31T01:14:13;4.53;;;2.50;;
8183;SDS011;4133;48.752;9.088;2022-10-31T01:16:39;7.83;;;2.40;;
8183;SDS011;4133;48.752;9.088;2022-10-31T01:19:05;6.60;;;2.20;;
8183;SDS011;4133;48.752;9.088;2022-10-31T01:21:31;4.90;;;2.17;;
8183;SDS011;4133;48.752;9.088;2022-10-31T01:23:58;4.27;;;2.00;;
8183;SDS011;4133;48.752;9.088;2022-10-31T01:26:27;4.73;;;2.10;;
8183;SDS011;4133;48.752;9.088;2022-10-31T01:28:59;5.47;;;2.30;;
8183;SDS011;4133;48.752;9.088;2022-10-31T01:31:26;7.53;;;2.60;;
8183;SDS011;4133;48.752;9.088;2022-10-31T01:33:53;6.33;;;3.10;;
8183;SDS011;4133;48.752;9.088;2022-10-31T01:36:24;5.47;;;2.60;;
8183;SDS011;4133;48.752;9.088;2022-10-31T01:38:51;4.70;;;2.37;;
8183;SDS011;4133;48.752;9.088;2022-10-31T01:41:20;4.93;;;2.23;;
8183;SDS011;4133;48.752;9.088;2022-10-31T01:46:12;6.60;;;2.57;;
8183;SDS011;4133;48.752;9.088;2022-10-31T01:48:39;5.00;;;2.20;;
8183;SDS011;4133;48.752;9.088;2022-10-31T01:51:05;13.07;;;2.50;;
8183;SDS011;4133;48.752;9.088;2022-10-31T01:53:32;4.40;;;2.10;;
8183;SDS011;4133;48.752;9.088;2022-10-31T01:59:02;7.47;;;2.30;;
8183;SDS011;4133;48.752;9.088;2022-10-31T02:01:29;6.20;;;2.20;;
8183;SDS011;4133;48.752;9.088;2022-10-31T02:03:55;4.57;;;2.43;;
8183;SDS011;4133;48.752;9.088;2022-10-31T02:07:05;4.23;;;2.13;;
8183;SDS011;4133;48.752;9.088;2022-10-31T02:09:11;5.30;;;2.57;;
8183;SDS011;4133;48.752;9.088;2022-10-31T02:11:41;7.47;;;2.50;;
8183;SDS011;4133;48.752;9.088;2022-10-31T02:14:08;5.10;;;2.30;;
8183;SDS011;4133;48.752;9.088;2022-10-31T02:16:33;5.33;;;2.30;;
8183;SDS011;4133;48.752;9.088;2022-10-31T02:18:59;8.67;;;2.40;;
8183;SDS011;4133;48.752;9.088;2022-10-31T02:32:14;5.13;;;2.40;;
8183;SDS011;4133;48.752;9.088;2022-10-31T02:34:57;12.67;;;2.70;;
8183;SDS011;4133;48.752;9.088;2022-10-31T02:40:28;6.63;;;2.40;;
8183;SDS011;4133;48.752;9.088;2022-10-31T02:42:59;5.03;;;2.00;;
8183;SDS011;4133;48.752;9.088;2022-10-31T02:45:48;5.33;;;2.33;;
8183;SDS011;4133;48.752;9.088;2022-10-31T02:48:19;5.93;;;2.80;;
8183;SDS011;4133;48.752;9.088;2022-10-31T02:50:49;5.50;;;2.30;;
8183;SDS011;4133;48.752;9.088;2022-10-31T02:53:18;5.13;;;2.77;;
8183;SDS011;4133;48.752;9.088;2022-10-31T02:58:49;3.80;;;2.10;;
8183;SDS011;4133;48.752;9.088;2022-10-31T03:06:45;11.37;;;3.20;;
8183;SDS011;4133;48.752;9.088;2022-10-31T03:12:25;7.23;;;2.30;;
8183;SDS011;4133;48.752;9.088;2022-10-31T03:14:38;4.70;;;2.57;;
8183;SDS011;4133;48.752;9.088;2022-10-31T03:17:07;5.93;;;2.40;;
8183;SDS011;4133;48.752;9.088;2022-10-31T03:19:40;6.33;;;2.40;;
8183;SDS011;4133;48.752;9.088;2022-10-31T03:24:36;4.93;;;2.40;;
8183;SDS011;4133;48.752;9.088;2022-10-31T03:27:03;10.53;;;2.50;;
8183;SDS011;4133;48.752;9.088;2022-10-31T03:29:32;4.77;;;2.47;;
8183;SDS011;4133;48.752;9.088;2022-10-31T03:32:13;8.53;;;3.10;;
8183;SDS011;4133;48.752;9.088;2022-10-31T03:34:41;6.83;;;2.83;;
8183;SDS011;4133;48.752;9.088;2022-10-31T03:37:08;4.20;;;2.43;;
8183;SDS011;4133;48.752;9.088;2022-10-31T03:39:35;6.93;;;2.43;;
8183;SDS011;4133;48.752;9.088;2022-10-31T03:42:05;4.40;;;2.23;;
8183;SDS011;4133;48.752;9.088;2022-10-31T03:44:32;5.77;;;2.50;;
8183;SDS011;4133;48.752;9.088;2022-10-31T03:46:59;5.63;;;2.73;;
8183;SDS011;4133;48.752;9.088;2022-10-31T03:49:26;7.13;;;2.80;;
8183;SDS011;4133;48.752;9.088;2022-10-31T03:52:01;5.77;;;2.60;;
8183;SDS011;4133;48.752;9.088;2022-10-31T03:54:33;6.70;;;2.47;;
8183;SDS011;4133;48.752;9.088;2022-10-31T04:00:06;4.83;;;3.03;;
8183;SDS011;4133;48.752;9.088;2022-10-31T04:02:33;8.60;;;3.00;;
8183;SDS011;4133;48.752;9.088;2022-10-31T04:05:00;4.53;;;2.80;;
8183;SDS011;4133;48.752;9.088;2022-10-31T04:07:30;7.33;;;2.40;;
8183;SDS011;4133;48.752;9.088;2022-10-31T04:09:57;7.70;;;2.30;;
8183;SDS011;4133;48.752;9.088;2022-10-31T04:12:25;3.53;;;2.17;;
8183;SDS011;4133;48.752;9.088;2022-10-31T04:14:52;4.17;;;2.53;;
8183;SDS011;4133;48.752;9.088;2022-10-31T04:17:18;6.03;;;2.80;;
8183;SDS011;4133;48.752;9.088;2022-10-31T04:20:00;9.63;;;2.70;;
8183;SDS011;4133;48.752;9.088;2022-10-31T04:22:26;5.57;;;2.70;;
8183;SDS011;4133;48.752;9.088;2022-10-31T04:24:52;8.43;;;2.53;;
8183;SDS011;4133;48.752;9.088;2022-10-31T04:27:18;3.83;;;2.50;;
8183;SDS011;4133;48.752;9.088;2022-10-31T04:29:44;5.60;;;3.00;;
8183;SDS011;4133;48.752;9.088;2022-10-31T04:32:10;5.60;;;2.13;;
8183;SDS011;4133;48.752;9.088;2022-10-31T04:34:36;5.60;;;2.40;;
8183;SDS011;4133;48.752;9.088;2022-10-31T04:37:02;5.03;;;2.27;;
8183;SDS011;4133;48.752;9.088;2022-10-31T04:39:28;5.00;;;2.20;;
8183;SDS011;4133;48.752;9.088;2022-10-31T04:41:54;5.27;;;2.37;;
8183;SDS011;4133;48.752;9.088;2022-10-31T04:44:20;6.40;;;2.57;;
8183;SDS011;4133;48.752;9.088;2022-10-31T04:46:46;4.97;;;2.60;;
8183;SDS011;4133;48.752;9.088;2022-10-31T04:49:12;5.90;;;2.50;;
8183;SDS011;4133;48.752;9.088;2022-10-31T04:51:38;4.50;;;2.90;;
8183;SDS011;4133;48.752;9.088;2022-10-31T04:54:04;5.13;;;2.70;;
8183;SDS011;4133;48.752;9.088;2022-10-31T04:59:34;5.60;;;3.30;;
8183;SDS011;4133;48.752;9.088;2022-10-31T05:02:00;4.73;;;2.30;;
8183;SDS011;4133;48.752;9.088;2022-10-31T05:04:26;6.07;;;2.67;;
8183;SDS011;4133;48.752;9.088;2022-10-31T05:06:52;9.33;;;2.83;;
8183;SDS011;4133;48.752;9.088;2022-10-31T05:09:18;7.53;;;3.00;;
8183;SDS011;4133;48.752;9.088;2022-10-31T05:11:44;4.67;;;3.00;;
8183;SDS011;4133;48.752;9.088;2022-10-31T05:14:10;6.87;;;2.90;;
8183;SDS011;4133;48.752;9.088;2022-10-31T05:16:36;3.53;;;2.37;;
8183;SDS011;4133;48.752;9.088;2022-10-31T05:19:02;6.30;;;2.43;;
8183;SDS011;4133;48.752;9.088;2022-10-31T05:21:28;4.53;;;2.40;;
8183;SDS011;4133;48.752;9.088;2022-10-31T05:23:54;5.23;;;2.20;;
8183;SDS011;4133;48.752;9.088;2022-10-31T05:26:20;5.13;;;2.53;;
8183;SDS011;4133;48.752;9.088;2022-10-31T05:28:46;6.27;;;2.93;;
8183;SDS011;4133;48.752;9.088;2022-10-31T05:31:12;6.00;;;2.60;;
8183;SDS011;4133;48.752;9.088;2022-10-31T05:33:38;9.43;;;3.20;;
8183;SDS011;4133;48.752;9.088;2022-10-31T05:36:04;7.50;;;2.80;;
8183;SDS011;4133;48.752;9.088;2022-10-31T05:38:30;5.33;;;3.17;;
8183;SDS011;4133;48.752;9.088;2022-10-31T05:40:56;15.77;;;3.77;;
8183;SDS011;4133;48.752;9.088;2022-10-31T05:43:26;5.77;;;3.53;;
8183;SDS011;4133;48.752;9.088;2022-10-31T05:45:53;4.73;;;2.90;;
8183;SDS011;4133;48.752;9.088;2022-10-31T05:48:19;7.80;;;4.10;;
8183;SDS011;4133;48.752;9.088;2022-10-31T05:50:47;5.03;;;3.57;;
8183;SDS011;4133;48.752;9.088;2022-10-31T05:53:13;8.50;;;3.37;;
8183;SDS011;4133;48.752;9.088;2022-10-31T05:58:42;5.73;;;2.67;;
8183;SDS011;4133;48.752;9.088;2022-10-31T06:01:08;9.37;;;2.80;;
8183;SDS011;4133;48.752;9.088;2022-10-31T06:03:34;6.53;;;4.03;;
8183;SDS011;4133;48.752;9.088;2022-10-31T06:06:00;10.33;;;4.30;;
8183;SDS011;4133;48.752;9.088;2022-10-31T06:08:26;8.03;;;4.50;;
8183;SDS011;4133;48.752;9.088;2022-10-31T06:10:52;7.10;;;3.73;;
8183;SDS011;4133;48.752;9.088;2022-10-31T06:13:18;4.70;;;3.00;;
8183;SDS011;4133;48.752;9.088;2022-10-31T06:15:44;5.80;;;2.80;;
8183;SDS011;4133;48.752;9.088;2022-10-31T06:18:10;5.00;;;2.50;;
8183;SDS011;4133;48.752;9.088;2022-10-31T06:20:36;7.33;;;3.10;;
8183;SDS011;4133;48.752;9.088;2022-10-31T06:23:03;4.40;;;2.90;;
8183;SDS011;4133;48.752;9.088;2022-10-31T06:25:29;5.67;;;2.77;;
8183;SDS011;4133;48.752;9.088;2022-10-31T06:27:55;6.27;;;2.70;;
8183;SDS011;4133;48.752;9.088;2022-10-31T06:30:21;3.13;;;2.37;;
8183;SDS011;4133;48.752;9.088;2022-10-31T06:32:47;5.50;;;2.73;;
8183;SDS011;4133;48.752;9.088;2022-10-31T06:35:14;9.77;;;2.97;;
8183;SDS011;4133;48.752;9.088;2022-10-31T06:37:40;6.17;;;3.00;;
8183;SDS011;4133;48.752;9.088;2022-10-31T06:40:06;4.77;;;2.77;;
8183;SDS011;4133;48.752;9.088;2022-10-31T06:42:32;3.73;;;2.70;;
8183;SDS011;4133;48.752;9.088;2022-10-31T06:44:58;4.57;;;2.37;;
8183;SDS011;4133;48.752;9.088;2022-10-31T06:47:24;5.07;;;2.23;;
8183;SDS011;4133;48.752;9.088;2022-10-31T06:49:50;7.57;;;2.73;;
8183;SDS011;4133;48.752;9.088;2022-10-31T06:52:16;5.30;;;2.67;;
8183;SDS011;4133;48.752;9.088;2022-10-31T06:54:42;6.17;;;2.70;;
8183;SDS011;4133;48.752;9.088;2022-10-31T06:57:09;5.27;;;2.70;;
8183;SDS011;4133;48.752;9.088;2022-10-31T06:59:35;5.43;;;2.80;;
8183;SDS011;4133;48.752;9.088;2022-10-31T07:02:01;4.93;;;2.30;;
8183;SDS011;4133;48.752;9.088;2022-10-31T07:04:27;4.10;;;2.60;;
8183;SDS011;4133;48.752;9.088;2022-10-31T07:06:53;4.10;;;2.40;;
8183;SDS011;4133;48.752;9.088;2022-10-31T07:09:22;4.90;;;2.93;;
8183;SDS011;4133;48.752;9.088;2022-10-31T07:11:48;3.53;;;2.60;;
8183;SDS011;4133;48.752;9.088;2022-10-31T07:14:17;4.27;;;2.37;;
8183;SDS011;4133;48.752;9.088;2022-10-31T07:16:43;3.67;;;2.07;;
8183;SDS011;4133;48.752;9.088;2022-10-31T07:19:09;9.50;;;2.60;;
8183;SDS011;4133;48.752;9.088;2022-10-31T07:21:35;3.70;;;2.13;;
8183;SDS011;4133;48.752;9.088;2022-10-31T07:24:01;4.17;;;2.33;;
8183;SDS011;4133;48.752;9.088;2022-10-31T07:26:27;6.73;;;2.20;;
8183;SDS011;4133;48.752;9.088;2022-10-31T07:28:53;7.53;;;2.83;;
8183;SDS011;4133;48.752;9.088;2022-10-31T07:31:19;7.90;;;2.63;;
8183;SDS011;4133;48.752;9.088;2022-10-31T07:33:44;12.10;;;2.93;;
8183;SDS011;4133;48.752;9.088;2022-10-31T07:36:10;5.60;;;2.77;;
8183;SDS011;4133;48.752;9.088;2022-10-31T07:38:36;4.80;;;3.03;;
8183;SDS011;4133;48.752;9.088;2022-10-31T07:41:02;5.70;;;2.77;;
8183;SDS011;4133;48.752;9.088;2022-10-31T07:43:29;5.17;;;2.97;;
8183;SDS011;4133;48.752;9.088;2022-10-31T07:45:55;5.27;;;2.90;;
8183;SDS011;4133;48.752;9.088;2022-10-31T07:48:21;8.37;;;2.80;;
8183;SDS011;4133;48.752;9.088;2022-10-31T07:50:47;6.17;;;2.63;;
8183;SDS011;4133;48.752;9.088;2022-10-31T07:53:13;3.33;;;2.80;;
8183;SDS011;4133;48.752;9.088;2022-10-31T07:55:42;5.13;;;2.80;;
8183;SDS011;4133;48.752;9.088;2022-10-31T07:58:09;7.23;;;2.90;;
8183;SDS011;4133;48.752;9.088;2022-10-31T08:00:35;7.60;;;2.97;;
8183;SDS011;4133;48.752;9.088;2022-10-31T08:03:05;6.73;;;2.87;;
8183;SDS011;4133;48.752;9.088;2022-10-31T08:05:32;4.83;;;3.00;;
8183;SDS011;4133;48.752;9.088;2022-10-31T08:07:58;9.17;;;3.60;;
8183;SDS011;4133;48.752;9.088;2022-10-31T08:10:24;4.83;;;2.87;;
8183;SDS011;4133;48.752;9.088;2022-10-31T08:15:22;5.90;;;2.60;;
8183;SDS011;4133;48.752;9.088;2022-10-31T08:17:48;4.83;;;2.70;;
8183;SDS011;4133;48.752;9.088;2022-10-31T08:20:14;9.73;;;3.00;;
8183;SDS011;4133;48.752;9.088;2022-10-31T08:22:40;5.83;;;2.80;;
8183;SDS011;4133;48.752;9.088;2022-10-31T08:25:08;6.77;;;2.80;;
8183;SDS011;4133;48.752;9.088;2022-10-31T08:27:34;6.43;;;2.90;;
8183;SDS011;4133;48.752;9.088;2022-10-31T08:30:00;6.07;;;2.97;;
8183;SDS011;4133;48.752;9.088;2022-10-31T08:32:26;6.68;;;3.40;;
8183;SDS011;4133;48.752;9.088;2022-10-31T08:34:52;6.27;;;3.03;;
8183;SDS011;4133;48.752;9.088;2022-10-31T08:37:18;5.77;;;3.00;;
8183;SDS011;4133;48.752;9.088;2022-10-31T08:39:47;9.57;;;3.22;;
8183;SDS011;4133;48.752;9.088;2022-10-31T08:42:13;7.10;;;2.70;;
8183;SDS011;4133;48.752;9.088;2022-10-31T08:44:39;9.63;;;2.93;;
8183;SDS011;4133;48.752;9.088;2022-10-31T08:47:05;8.10;;;2.90;;
8183;SDS011;4133;48.752;9.088;2022-10-31T08:49:31;4.90;;;2.63;;
8183;SDS011;4133;48.752;9.088;2022-10-31T08:51:57;8.27;;;3.37;;
8183;SDS011;4133;48.752;9.088;2022-10-31T08:54:23;6.00;;;3.07;;
8183;SDS011;4133;48.752;9.088;2022-10-31T08:59:53;3.77;;;2.50;;
8183;SDS011;4133;48.752;9.088;2022-10-31T09:02:19;3.83;;;2.77;;
8183;SDS011;4133;48.752;9.088;2022-10-31T09:04:45;3.67;;;2.93;;
8183;SDS011;4133;48.752;9.088;2022-10-31T09:07:11;9.27;;;3.20;;
8183;SDS011;4133;48.752;9.088;2022-10-31T09:09:37;3.83;;;2.63;;
8183;SDS011;4133;48.752;9.088;2022-10-31T09:12:03;4.77;;;2.57;;
8183;SDS011;4133;48.752;9.088;2022-10-31T09:14:29;9.00;;;3.10;;
8183;SDS011;4133;48.752;9.088;2022-10-31T09:16:55;6.20;;;2.80;;
8183;SDS011;4133;48.752;9.088;2022-10-31T09:19:21;6.07;;;2.60;;
8183;SDS011;4133;48.752;9.088;2022-10-31T09:21:47;4.70;;;2.70;;
8183;SDS011;4133;48.752;9.088;2022-10-31T09:24:13;6.27;;;2.80;;
8183;SDS011;4133;48.752;9.088;2022-10-31T09:26:39;5.50;;;2.60;;
8183;SDS011;4133;48.752;9.088;2022-10-31T09:29:05;4.30;;;3.00;;
8183;SDS011;4133;48.752;9.088;2022-10-31T09:31:34;7.37;;;2.77;;
8183;SDS011;4133;48.752;9.088;2022-10-31T09:34:00;7.67;;;3.30;;
8183;SDS011;4133;48.752;9.088;2022-10-31T09:36:26;6.07;;;2.87;;
8183;SDS011;4133;48.752;9.088;2022-10-31T09:38:52;6.47;;;3.17;;
8183;SDS011;4133;48.752;9.088;2022-10-31T09:41:26;5.97;;;2.87;;
8183;SDS011;4133;48.752;9.088;2022-10-31T09:44:01;6.77;;;3.27;;
8183;SDS011;4133;48.752;9.088;2022-10-31T09:51:43;5.87;;;3.10;;
8183;SDS011;4133;48.752;9.088;2022-10-31T09:54:13;6.90;;;3.27;;
8183;SDS011;4133;48.752;9.088;2022-10-31T09:56:42;8.23;;;3.20;;
8183;SDS011;4133;48.752;9.088;2022-10-31T09:59:14;7.27;;;2.70;;
8183;SDS011;4133;48.752;9.088;2022-10-31T10:01:49;8.07;;;2.63;;
8183;SDS011;4133;48.752;9.088;2022-10-31T10:07:02;8.17;;;2.73;;
8183;SDS011;4133;48.752;9.088;2022-10-31T10:09:29;9.53;;;3.03;;
8183;SDS011;4133;48.752;9.088;2022-10-31T10:12:00;5.13;;;2.80;;
8183;SDS011;4133;48.752;9.088;2022-10-31T10:19:56;4.75;;;2.72;;
8183;SDS011;4133;48.752;9.088;2022-10-31T10:32:46;8.27;;;3.00;;
8183;SDS011;4133;48.752;9.088;2022-10-31T10:35:19;5.50;;;2.90;;
8183;SDS011;4133;48.752;9.088;2022-10-31T10:37:46;11.63;;;3.23;;
8183;SDS011;4133;48.752;9.088;2022-10-31T10:40:19;6.18;;;3.40;;
8183;SDS011;4133;48.752;9.088;2022-10-31T10:45:40;8.45;;;3.28;;
8183;SDS011;4133;48.752;9.088;2022-10-31T10:48:39;6.45;;;3.20;;
8183;SDS011;4133;48.752;9.088;2022-10-31T10:51:10;6.55;;;2.95;;
8183;SDS011;4133;48.752;9.088;2022-10-31T10:56:39;8.70;;;3.33;;
8183;SDS011;4133;48.752;9.088;2022-10-31T10:59:11;10.20;;;3.35;;
8183;SDS011;4133;48.752;9.088;2022-10-31T11:01:39;6.10;;;3.20;;
8183;SDS011;4133;48.752;9.088;2022-10-31T11:04:24;7.95;;;3.35;;
8183;SDS011;4133;48.752;9.088;2022-10-31T11:07:01;6.53;;;3.10;;
8183;SDS011;4133;48.752;9.088;2022-10-31T11:09:28;11.50;;;3.72;;
8183;SDS011;4133;48.752;9.088;2022-10-31T11:11:54;13.52;;;3.67;;
8183;SDS011;4133;48.752;9.088;2022-10-31T11:14:21;5.03;;;3.20;;
8183;SDS011;4133;48.752;9.088;2022-10-31T11:16:49;8.95;;;3.33;;
8183;SDS011;4133;48.752;9.088;2022-10-31T11:19:20;7.70;;;3.35;;
8183;SDS011;4133;48.752;9.088;2022-10-31T11:21:47;9.50;;;3.45;;
8183;SDS011;4133;48.752;9.088;2022-10-31T11:24:14;9.50;;;3.58;;
8183;SDS011;4133;48.752;9.088;2022-10-31T11:26:41;7.50;;;4.20;;
8183;SDS011;4133;48.752;9.088;2022-10-31T11:29:15;8.40;;;3.70;;
8183;SDS011;4133;48.752;9.088;2022-10-31T11:31:41;9.38;;;4.22;;
8183;SDS011;4133;48.752;9.088;2022-10-31T11:34:54;7.10;;;3.80;;
8183;SDS011;4133;48.752;9.088;2022-10-31T11:36:55;6.53;;;4.03;;
8183;SDS011;4133;48.752;9.088;2022-10-31T11:39:22;8.02;;;4.15;;
8183;SDS011;4133;48.752;9.088;2022-10-31T11:41:50;11.00;;;4.40;;
8183;SDS011;4133;48.752;9.088;2022-10-31T11:44:22;7.38;;;4.15;;
8183;SDS011;4133;48.752;9.088;2022-10-31T11:46:51;13.00;;;4.53;;
8183;SDS011;4133;48.752;9.088;2022-10-31T11:49:24;10.52;;;4.38;;
8183;SDS011;4133;48.752;9.088;2022-10-31T11:51:53;10.98;;;4.53;;
8183;SDS011;4133;48.752;9.088;2022-10-31T11:54:25;9.10;;;4.45;;
8183;SDS011;4133;48.752;9.088;2022-10-31T11:56:57;10.07;;;4.70;;
8183;SDS011;4133;48.752;9.088;2022-10-31T12:01:50;11.05;;;4.30;;
8183;SDS011;4133;48.752;9.088;2022-10-31T12:04:16;11.88;;;4.50;;
8183;SDS011;4133;48.752;9.088;2022-10-31T12:06:43;9.02;;;4.15;;
8183;SDS011;4133;48.752;9.088;2022-10-31T12:09:29;7.68;;;3.88;;
8183;SDS011;4133;48.752;9.088;2022-10-31T12:12:18;15.75;;;4.55;;
8183;SDS011;4133;48.752;9.088;2022-10-31T12:15:03;9.57;;;4.13;;
8183;SDS011;4133;48.752;9.088;2022-10-31T12:17:35;8.52;;;4.03;;
8183;SDS011;4133;48.752;9.088;2022-10-31T12:25:32;10.40;;;3.67;;
8183;SDS011;4133;48.752;9.088;2022-10-31T12:28:03;10.43;;;3.85;;
8183;SDS011;4133;48.752;9.088;2022-10-31T12:30:48;11.18;;;3.47;;
8183;SDS011;4133;48.752;9.088;2022-10-31T12:33:27;10.75;;;3.70;;
8183;SDS011;4133;48.752;9.088;2022-10-31T12:38:36;12.02;;;3.78;;
8183;SDS011;4133;48.752;9.088;2022-10-31T12:41:23;9.50;;;3.67;;
8183;SDS011;4133;48.752;9.088;2022-10-31T12:46:33;9.27;;;3.70;;
8183;SDS011;4133;48.752;9.088;2022-10-31T12:49:15;7.60;;;3.92;;
8183;SDS011;4133;48.752;9.088;2022-10-31T12:51:49;10.52;;;3.88;;
8183;SDS011;4133;48.752;9.088;2022-10-31T12:54:30;8.93;;;3.70;;
8183;SDS011;4133;48.752;9.088;2022-10-31T12:59:35;12.02;;;3.83;;
8183;SDS011;4133;48.752;9.088;2022-10-31T13:07:11;9.43;;;3.70;;
8183;SDS011;4133;48.752;9.088;2022-10-31T13:09:40;7.57;;;3.60;;
8183;SDS011;4133;48.752;9.088;2022-10-31T13:12:09;5.32;;;3.45;;
8183;SDS011;4133;48.752;9.088;2022-10-31T13:14:38;7.22;;;3.45;;
8183;SDS011;4133;48.752;9.088;2022-10-31T13:17:06;11.10;;;3.22;;
8183;SDS011;4133;48.752;9.088;2022-10-31T13:19:39;8.63;;;3.70;;
8183;SDS011;4133;48.752;9.088;2022-10-31T13:24:34;11.48;;;4.45;;
8183;SDS011;4133;48.752;9.088;2022-10-31T13:27:02;14.85;;;4.20;;
8183;SDS011;4133;48.752;9.088;2022-10-31T13:29:33;10.77;;;3.83;;
8183;SDS011;4133;48.752;9.088;2022-10-31T13:32:00;8.73;;;3.92;;
8183;SDS011;4133;48.752;9.088;2022-10-31T13:39:25;10.55;;;4.20;;
8183;SDS011;4133;48.752;9.088;2022-10-31T13:44:22;14.85;;;4.15;;
8183;SDS011;4133;48.752;9.088;2022-10-31T13:46:49;7.32;;;3.50;;
8183;SDS011;4133;48.752;9.088;2022-10-31T13:51:51;9.32;;;3.72;;
8183;SDS011;4133;48.752;9.088;2022-10-31T13:54:21;9.60;;;4.03;;
8183;SDS011;4133;48.752;9.088;2022-10-31T13:56:51;8.23;;;3.83;;
8183;SDS011;4133;48.752;9.088;2022-10-31T14:04:38;8.27;;;3.40;;
8183;SDS011;4133;48.752;9.088;2022-10-31T14:07:06;9.82;;;3.90;;
8183;SDS011;4133;48.752;9.088;2022-10-31T14:09:37;12.27;;;3.67;;
8183;SDS011;4133;48.752;9.088;2022-10-31T14:12:08;12.30;;;3.95;;
8183;SDS011;4133;48.752;9.088;2022-10-31T14:14:40;9.20;;;3.60;;
8183;SDS011;4133;48.752;9.088;2022-10-31T14:17:12;8.45;;;3.47;;
8183;SDS011;4133;48.752;9.088;2022-10-31T14:19:41;11.35;;;3.70;;
8183;SDS011;4133;48.752;9.088;2022-10-31T14:22:19;13.45;;;3.58;;
8183;SDS011;4133;48.752;9.088;2022-10-31T14:24:45;7.78;;;3.15;;
8183;SDS011;4133;48.752;9.088;2022-10-31T14:29:50;10.63;;;3.92;;
8183;SDS011;4133;48.752;9.088;2022-10-31T14:32:23;10.00;;;4.07;;
8183;SDS011;4133;48.752;9.088;2022-10-31T14:42:20;10.40;;;3.42;;
8183;SDS011;4133;48.752;9.088;2022-10-31T14:50:21;9.82;;;3.85;;
8183;SDS011;4133;48.752;9.088;2022-10-31T14:52:52;7.13;;;3.67;;
8183;SDS011;4133;48.752;9.088;2022-10-31T14:55:19;10.38;;;3.60;;
8183;SDS011;4133;48.752;9.088;2022-10-31T15:00:22;10.07;;;3.75;;
8183;SDS011;4133;48.752;9.088;2022-10-31T15:02:52;7.88;;;3.90;;
8183;SDS011;4133;48.752;9.088;2022-10-31T15:05:20;15.90;;;4.47;;
8183;SDS011;4133;48.752;9.088;2022-10-31T15:07:56;5.93;;;3.60;;
8183;SDS011;4133;48.752;9.088;2022-10-31T15:12:51;11.00;;;3.97;;
8183;SDS011;4133;48.752;9.088;2022-10-31T15:15:22;9.25;;;4.45;;
8183;SDS011;4133;48.752;9.088;2022-10-31T15:17:51;6.47;;;3.85;;
8183;SDS011;4133;48.752;9.088;2022-10-31T15:20:19;7.80;;;4.00;;
8183;SDS011;4133;48.752;9.088;2022-10-31T15:22:46;6.93;;;4.05;;
8183;SDS011;4133;48.752;9.088;2022-10-31T15:25:19;6.93;;;3.50;;
8183;SDS011;4133;48.752;9.088;2022-10-31T15:27:46;7.80;;;3.60;;
8183;SDS011;4133;48.752;9.088;2022-10-31T15:30:19;7.77;;;4.20;;
8183;SDS011;4133;48.752;9.088;2022-10-31T15:32:46;12.45;;;4.90;;
8183;SDS011;4133;48.752;9.088;2022-10-31T15:35:19;12.68;;;5.20;;
8183;SDS011;4133;48.752;9.088;2022-10-31T15:37:45;11.50;;;5.53;;
8183;SDS011;4133;48.752;9.088;2022-10-31T15:40:15;9.30;;;4.57;;
8183;SDS011;4133;48.752;9.088;2022-10-31T15:42:41;10.18;;;4.10;;
8183;SDS011;4133;48.752;9.088;2022-10-31T15:47:37;9.52;;;4.38;;
8183;SDS011;4133;48.752;9.088;2022-10-31T15:50:17;11.27;;;4.23;;
8183;SDS011;4133;48.752;9.088;2022-10-31T15:52:44;12.27;;;4.80;;
8183;SDS011;4133;48.752;9.088;2022-10-31T15:57:55;20.25;;;7.15;;
8183;SDS011;4133;48.752;9.088;2022-10-31T16:02:49;10.00;;;3.80;;
8183;SDS011;4133;48.752;9.088;2022-10-31T16:05:19;12.60;;;3.93;;
8183;SDS011;4133;48.752;9.088;2022-10-31T16:07:48;11.27;;;4.10;;
8183;SDS011;4133;48.752;9.088;2022-10-31T16:10:23;11.07;;;3.95;;
8183;SDS011;4133;48.752;9.088;2022-10-31T16:12:50;10.10;;;4.00;;
8183;SDS011;4133;48.752;9.088;2022-10-31T16:15:17;8.93;;;4.33;;
8183;SDS011;4133;48.752;9.088;2022-10-31T16:17:44;10.97;;;4.57;;
8183;SDS011;4133;48.752;9.088;2022-10-31T16:20:21;11.27;;;4.93;;
8183;SDS011;4133;48.752;9.088;2022-10-31T16:22:50;12.27;;;4.70;;
8183;SDS011;4133;48.752;9.088;2022-10-31T16:25:19;16.87;;;5.30;;
8183;SDS011;4133;48.752;9.088;2022-10-31T16:27:50;11.13;;;4.40;;
8183;SDS011;4133;48.752;9.088;2022-10-31T16:30:27;11.80;;;4.40;;
8183;SDS011;4133;48.752;9.088;2022-10-31T16:32:58;12.77;;;4.17;;
8183;SDS011;4133;48.752;9.088;2022-10-31T16:37:50;10.43;;;4.40;;
8183;SDS011;4133;48.752;9.088;2022-10-31T16:40:17;7.23;;;4.43;;
8183;SDS011;4133;48.752;9.088;2022-10-31T16:42:43;11.30;;;4.60;;
8183;SDS011;4133;48.752;9.088;2022-10-31T16:45:28;9.70;;;4.10;;
8183;SDS011;4133;48.752;9.088;2022-10-31T16:48:01;6.10;;;4.13;;
8183;SDS011;4133;48.752;9.088;2022-10-31T16:50:27;10.67;;;3.90;;
8183;SDS011;4133;48.752;9.088;2022-10-31T16:52:53;8.17;;;4.07;;
8183;SDS011;4133;48.752;9.088;2022-10-31T16:55:20;11.00;;;4.17;;
8183;SDS011;4133;48.752;9.088;2022-10-31T16:57:54;8.97;;;4.00;;
8183;SDS011;4133;48.752;9.088;2022-10-31T17:00:21;10.27;;;3.93;;
8183;SDS011;4133;48.752;9.088;2022-10-31T17:02:48;9.10;;;3.50;;
8183;SDS011;4133;48.752;9.088;2022-10-31T17:05:16;7.80;;;3.63;;
8183;SDS011;4133;48.752;9.088;2022-10-31T17:07:43;8.37;;;4.00;;
8183;SDS011;4133;48.752;9.088;2022-10-31T17:10:09;11.40;;;3.87;;
8183;SDS011;4133;48.752;9.088;2022-10-31T17:12:36;10.17;;;4.00;;
8183;SDS011;4133;48.752;9.088;2022-10-31T17:15:06;7.90;;;4.20;;
8183;SDS011;4133;48.752;9.088;2022-10-31T17:17:38;10.67;;;3.97;;
8183;SDS011;4133;48.752;9.088;2022-10-31T17:20:10;7.80;;;4.40;;
8183;SDS011;4133;48.752;9.088;2022-10-31T17:22:40;8.80;;;3.83;;
8183;SDS011;4133;48.752;9.088;2022-10-31T17:25:07;11.27;;;4.63;;
8183;SDS011;4133;48.752;9.088;2022-10-31T17:27:34;9.67;;;4.47;;
8183;SDS011;4133;48.752;9.088;2022-10-31T17:30:00;8.00;;;4.10;;
8183;SDS011;4133;48.752;9.088;2022-10-31T17:32:26;11.40;;;3.97;;
8183;SDS011;4133;48.752;9.088;2022-10-31T17:34:52;12.37;;;3.97;;
8183;SDS011;4133;48.752;9.088;2022-10-31T17:37:18;8.93;;;4.47;;
8183;SDS011;4133;48.752;9.088;2022-10-31T17:39:44;7.27;;;4.10;;
8183;SDS011;4133;48.752;9.088;2022-10-31T17:42:10;9.80;;;4.43;;
8183;SDS011;4133;48.752;9.088;2022-10-31T17:44:36;11.33;;;4.30;;
8183;SDS011;4133;48.752;9.088;2022-10-31T17:47:02;8.70;;;4.20;;
8183;SDS011;4133;48.752;9.088;2022-10-31T17:49:28;15.33;;;4.13;;